LFPGEDDG

Guest
Details From LFPG - Paris Charles De Gaulle
To EDDG - Muenster Osnabrueck
Flight Number -
Tags generated
Created
Modified
Stats Distance 273 nm / 506 km
Max Altitude 33,700 ft / 10,272 m
Waypoints 5
Social Downloads 1
Likes 0
Share VATSIM

Download

Looking for another format? Having issues loading an existing format? Contact us
Advertisement - Login to hide

Notes

Basic altitude profile: - Ascent Rate: 2500ft/min - Ascent Speed: 250kts - Cruise Altitude: 35000ft - Cruise Speed: 420kts - Descent Rate: 1500ft/min - Descent Speed: 250kts

Route

LFPG FAMEN UZ707 ULPEN EDDG

ID Type Via Altitude Latitude Longitude Leg Dist Tot Dist Heading (true) Name
O LFPG APT - 0 ft / 0 m 49.00974˚ 2.56262˚ - 0 nm - Paris Charles De Gaulle
FAMEN FIX - 33,700 ft / 10,272 m 49.97500˚ 4.56667˚ 97 nm 97 nm 53° / 54° -
LNO VOR UZ707 (AWY-HI) 25,400 ft / 7,742 m 50.58583˚ 5.71028˚ 57 nm 154 nm 50° / 51° OLNO VOR-DME
ULPEN FIX UZ707 (AWY-HI) 23,500 ft / 7,163 m 50.75556˚ 5.92750˚ 13 nm 167 nm 39° / 39° -
O EDDG APT - 0 ft / 0 m 52.13458˚ 7.68467˚ 105 nm 273 nm 38° / 39° Muenster Osnabrueck

Altitude Profile

Advertisement - Login to hide

Weather


0- 5 10 15 20 25 30 35+ Temperature / ° C

Clouds and Precipitation
Forecast for 2018-05-26 12:00 UTC. Updated an hour ago

Ground ~20,000 ft ~40,000 ft Winds

LFPG

Details ICAO LFPG (CDG)
Name Paris Charles De Gaulle
Region France
Timezone Europe/Paris (UTC+2.0)
Stats Elevation 392 ft / 119 m (AMSL)
Location 49.009742° 2.562619°
Runways 4
Magnetic Variation 0.701° E

METAR

LFPG 261230Z 13009KT 100V160 CAVOK 26/15 Q1015 NOSIG

Decode

TAF

TAF LFPG 261100Z 2612/2718 12010KT CAVOK TEMPO 2615/2618 FEW060CB PROB30 TEMPO 2619/2621 VRB15G25KT 3000 TSRA SCT050CB PROB30 TEMPO 2712/2714 3000 TSRA SCT060CB PROB40 TEMPO 2715/2718 2000 TSRA BKN030CB TX30/2615Z TN18/2704Z

Decode

Departure Runways

ID Width Length Bearing (true) Bearing (mag) Surface Threshold Offset Overrun Length
08L 148 ft / 45 m 14,039 ft / 4,279 m 85.37° 84.67° Asphalt 0 ft / 0 m 0 ft / 0 m
08R 197 ft / 60 m 8,797 ft / 2,681 m 85.39° 84.69° Asphalt 0 ft / 0 m 0 ft / 0 m
09L 197 ft / 60 m 8,835 ft / 2,693 m 85.39° 84.69° Asphalt 0 ft / 0 m 0 ft / 0 m
09R 148 ft / 45 m 13,744 ft / 4,189 m 85.38° 84.68° Asphalt 0 ft / 0 m 0 ft / 0 m
26L 197 ft / 60 m 8,797 ft / 2,681 m 265.41° 264.71° Asphalt 0 ft / 0 m 0 ft / 0 m
26R 148 ft / 45 m 14,039 ft / 4,279 m 265.41° 264.71° Asphalt 1,893 ft / 577 m 0 ft / 0 m
27L 148 ft / 45 m 13,744 ft / 4,189 m 265.42° 264.72° Asphalt 1,969 ft / 600 m 0 ft / 0 m
27R 197 ft / 60 m 8,835 ft / 2,693 m 265.41° 264.71° Asphalt 0 ft / 0 m 0 ft / 0 m

EDDG

Details ICAO EDDG (FMO)
Name Muenster Osnabrueck
Region Germany - Civil
Timezone Europe/Berlin (UTC+2.0)
Stats Elevation 159 ft / 48 m (AMSL)
Location 52.134580° 7.684669°
Runways 1
Magnetic Variation 2.130° E

METAR

EDDG 261220Z VRB05KT CAVOK 28/11 Q1021 NOSIG

Decode

TAF

TAF EDDG 261100Z 2612/2712 07007KT CAVOK= TAF EDFH 261100Z 2612/2712 11006KT 9999 FEW045 PROB30 TEMPO 2711/2712 20015G25KT 4500 TSRAGR BKN035CB

Decode

Destination Runways

ID Width Length Bearing (true) Bearing (mag) Surface Threshold Offset Overrun Length
07 148 ft / 45 m 7,303 ft / 2,226 m 70.93° 68.80° Asphalt 151 ft / 46 m 0 ft / 0 m
25 148 ft / 45 m 7,303 ft / 2,226 m 250.96° 248.83° Asphalt 292 ft / 89 m 0 ft / 0 m

Approach Navaids

Runway Type Ident Frequency Range Bearing (true) Bearing (mag) Slope Elevation
07 Localiser IMOE 111.90 MHz 18 nm / 33 km 70.93° 68.80° - 156 ft / 48 m (AMSL)
07 Glidescope IMOE 111.90 MHz 10 nm / 19 km 70.95° 68.82° 3.00° 156 ft / 48 m (AMSL)
25 Localiser IMOW 110.10 MHz 18 nm / 33 km 251.02° 248.89° - 159 ft / 48 m (AMSL)
25 Glidescope IMOW 110.10 MHz 10 nm / 19 km 250.95° 248.82° 3.00° 159 ft / 48 m (AMSL)

Popular Alternatives